Time;durP1;ratioP1;P1;durP2;ratioP2;P2;SDS_P1;SDS_P2;PMS_P1;PMS_P2;Temp;Humidity;BMP_temperature;BMP_pressure;BME280_temperature;BME280_humidity;BME280_pressure;Samples;Min_cycle;Max_cycle;Signal;HPM_P1;HPM_P2
2022/03/08 00:02:19;;;;;;;12.75;5.95;;;;;;;3.14;60.61;99784.38;1748906;81;21033;-68
2022/03/08 00:04:46;;;;;;;15.20;5.92;;;;;;;2.91;60.71;99789.41;1771094;81;21005;-68
2022/03/08 00:07:14;;;;;;;15.48;6.12;;;;;;;2.72;61.64;99787.90;1770961;80;21150;-70
2022/03/08 00:09:40;;;;;;;10.20;5.37;;;;;;;2.72;62.52;99791.36;1770685;81;20990;-69
2022/03/08 00:12:09;;;;;;;13.70;6.35;;;;;;;2.80;62.84;99789.11;1771016;80;21573;-69
2022/03/08 00:14:39;;;;;;;11.68;5.92;;;;;;;2.95;62.35;99781.14;1750536;80;21123;-69
2022/03/08 00:17:06;;;;;;;11.20;5.72;;;;;;;3.03;62.06;99783.20;1740336;82;21050;-69
2022/03/08 00:19:32;;;;;;;12.60;6.40;;;;;;;2.90;61.57;99779.89;1740235;82;21255;-68
2022/03/08 00:21:59;;;;;;;12.35;6.30;;;;;;;2.69;62.55;99778.40;1740184;82;21060;-70
2022/03/08 00:24:26;;;;;;;15.68;6.95;;;;;;;2.59;63.15;99776.75;1740136;82;21010;-70
2022/03/08 00:26:52;;;;;;;15.48;7.60;;;;;;;2.44;63.49;99776.89;1740169;82;20998;-69
2022/03/08 00:29:19;;;;;;;12.53;6.92;;;;;;;2.36;63.75;99776.97;1740524;82;21096;-69
2022/03/08 00:31:47;;;;;;;13.38;6.60;;;;;;;2.28;64.12;99786.15;1740356;82;21417;-68
2022/03/08 00:34:14;;;;;;;12.82;6.70;;;;;;;2.18;64.50;99788.38;1740205;82;21049;-69
2022/03/08 00:36:40;;;;;;;14.25;7.03;;;;;;;2.22;65.27;99788.79;1739997;82;21060;-68
2022/03/08 00:39:07;;;;;;;15.45;8.00;;;;;;;2.22;64.52;99792.69;1740272;82;21025;-70
2022/03/08 00:41:34;;;;;;;15.72;6.72;;;;;;;2.17;65.54;99789.27;1740213;82;22163;-69
2022/03/08 00:44:01;;;;;;;18.32;8.13;;;;;;;2.12;64.82;99789.76;1740312;82;22063;-69
2022/03/08 00:46:27;;;;;;;16.45;7.25;;;;;;;1.98;65.77;99786.38;1739909;82;21033;-67
2022/03/08 00:48:55;;;;;;;22.30;8.88;;;;;;;1.88;66.74;99782.55;1740587;82;20986;-68
2022/03/08 00:51:23;;;;;;;18.73;9.05;;;;;;;1.94;67.04;99782.96;1740124;82;21513;-67
2022/03/08 00:53:49;;;;;;;22.15;8.63;;;;;;;1.94;66.48;99786.00;1740588;82;21073;-68
2022/03/08 00:56:16;;;;;;;22.20;9.08;;;;;;;1.82;66.48;99780.02;1740361;82;21360;-69
2022/03/08 00:58:43;;;;;;;18.27;8.30;;;;;;;1.79;67.02;99777.42;1740281;82;21002;-68
2022/03/08 01:01:09;;;;;;;22.40;9.55;;;;;;;1.73;66.85;99783.12;1740324;82;21072;-68
2022/03/08 01:03:36;;;;;;;22.52;8.65;;;;;;;1.79;68.25;99782.62;1740028;82;21104;-70
2022/03/08 01:06:03;;;;;;;17.30;8.40;;;;;;;1.86;67.18;99776.54;1739909;82;21076;-70
2022/03/08 01:08:29;;;;;;;16.32;7.33;;;;;;;1.87;67.32;99772.20;1740160;82;21912;-68
2022/03/08 01:10:57;;;;;;;15.55;8.03;;;;;;;1.97;67.31;99767.79;1740088;82;22089;-69
2022/03/08 01:13:24;;;;;;;18.62;8.38;;;;;;;2.08;67.22;99768.56;1744884;81;21536;-69
2022/03/08 01:15:50;;;;;;;19.50;8.60;;;;;;;2.26;67.15;99761.91;1770469;80;21470;-69
2022/03/08 01:18:18;;;;;;;16.93;8.95;;;;;;;2.44;66.61;99754.80;1770626;81;21072;-69
2022/03/08 01:20:44;;;;;;;17.10;8.35;;;;;;;2.57;65.86;99747.30;1770670;81;21224;-69
2022/03/08 01:23:11;;;;;;;17.12;8.53;;;;;;;2.67;65.78;99748.95;1770900;81;21064;-68
2022/03/08 01:25:40;;;;;;;14.80;7.67;;;;;;;2.84;65.67;99758.30;1770818;80;20986;-68
2022/03/08 01:28:08;;;;;;;16.00;8.30;;;;;;;2.81;64.36;99750.54;1770711;80;21015;-69
2022/03/08 01:30:36;;;;;;;19.60;8.70;;;;;;;2.68;64.09;99748.05;1770866;80;21053;-69
2022/03/08 01:33:03;;;;;;;19.07;8.40;;;;;;;2.53;64.10;99753.41;1770783;80;21061;-68
2022/03/08 01:35:30;;;;;;;17.32;7.62;;;;;;;2.42;64.71;99752.69;1770710;81;21060;-69
2022/03/08 01:37:57;;;;;;;19.30;8.75;;;;;;;2.46;65.25;99751.75;1770783;81;21038;-70
2022/03/08 01:40:23;;;;;;;16.67;8.65;;;;;;;2.56;65.42;99746.90;1770839;80;21045;-70
2022/03/08 01:42:51;;;;;;;16.67;8.33;;;;;;;2.45;64.90;99749.59;1770415;81;21044;-67
2022/03/08 01:45:21;;;;;;;17.57;8.33;;;;;;;2.42;65.29;99752.69;1770654;80;21219;-68
2022/03/08 01:47:48;;;;;;;18.27;8.18;;;;;;;2.31;65.76;99753.62;1770718;81;21056;-68
2022/03/08 01:50:16;;;;;;;11.97;6.83;;;;;;;2.24;65.71;99749.37;1770566;81;21076;-68
2022/03/08 01:52:42;;;;;;;14.95;7.62;;;;;;;2.14;66.94;99754.23;1770929;80;21042;-68
2022/03/08 01:55:11;;;;;;;15.15;7.83;;;;;;;2.22;67.29;99756.31;1770928;80;21045;-68
2022/03/08 01:57:37;;;;;;;16.67;7.53;;;;;;;2.26;67.12;99752.81;1770947;81;21144;-70
2022/03/08 02:00:07;;;;;;;18.82;8.15;;;;;;;2.20;67.17;99754.16;1770946;81;21014;-67
2022/03/08 02:02:35;;;;;;;15.23;7.15;;;;;;;2.10;67.88;99761.62;1770558;80;21081;-68
2022/03/08 02:05:02;;;;;;;15.80;8.03;;;;;;;2.08;68.53;99756.44;1770649;80;20990;-69
2022/03/08 02:07:29;;;;;;;12.25;7.15;;;;;;;2.14;68.82;99752.94;1770691;81;21048;-68
2022/03/08 02:09:56;;;;;;;19.42;8.08;;;;;;;2.16;68.97;99756.36;1770648;81;21230;-68
2022/03/08 02:12:22;;;;;;;16.27;7.17;;;;;;;2.19;69.04;99752.90;1770303;81;20993;-68
2022/03/08 02:14:49;;;;;;;16.67;7.80;;;;;;;2.24;70.13;99751.11;1770422;80;21522;-68
2022/03/08 02:17:16;;;;;;;14.18;7.53;;;;;;;2.46;69.49;99758.25;1770907;81;21585;-68
2022/03/08 02:19:42;;;;;;;14.98;7.45;;;;;;;2.39;69.33;99756.14;1770366;81;20981;-68
2022/03/08 02:22:09;;;;;;;12.50;6.55;;;;;;;2.33;69.28;99752.33;1770575;80;21457;-69
2022/03/08 02:24:35;;;;;;;16.00;7.58;;;;;;;2.34;70.12;99751.88;1770796;80;21580;-68
2022/03/08 02:27:02;;;;;;;13.93;7.17;;;;;;;2.43;69.65;99754.39;1770819;80;21045;-68
2022/03/08 02:29:29;;;;;;;15.38;7.10;;;;;;;2.36;70.14;99763.98;1770642;80;21057;-68
2022/03/08 02:31:57;;;;;;;15.65;7.25;;;;;;;2.39;70.41;99759.19;1770604;80;21588;-69
2022/03/08 02:34:24;;;;;;;13.72;6.87;;;;;;;2.49;70.34;99754.34;1770593;81;21253;-69
2022/03/08 02:37:00;;;;;;;13.83;6.92;;;;;;;2.43;70.30;99758.29;1770373;80;21010;-67
2022/03/08 02:39:26;;;;;;;12.33;6.42;;;;;;;2.37;71.31;99752.73;1770694;80;21001;-68
2022/03/08 02:41:53;;;;;;;13.83;6.53;;;;;;;2.37;70.81;99754.44;1770544;81;21033;-69
2022/03/08 02:44:20;;;;;;;11.70;6.25;;;;;;;2.43;71.00;99758.29;1770616;80;21009;-69
2022/03/08 02:46:46;;;;;;;11.50;6.17;;;;;;;2.38;70.73;99758.33;1770772;81;21239;-68
2022/03/08 02:49:14;;;;;;;12.58;6.25;;;;;;;2.23;71.02;99758.05;1770630;81;21014;-69
2022/03/08 02:51:40;;;;;;;10.32;5.65;;;;;;;2.23;71.98;99760.66;1771091;81;21029;-68
2022/03/08 02:54:07;;;;;;;11.68;6.45;;;;;;;2.27;71.91;99758.87;1770947;81;21065;-69
2022/03/08 02:56:34;;;;;;;10.53;5.53;;;;;;;2.40;72.08;99757.03;1770992;81;20994;-68
2022/03/08 02:59:00;;;;;;;10.63;5.72;;;;;;;2.52;71.62;99754.30;1770977;80;21312;-68
2022/03/08 03:01:27;;;;;;;11.97;5.92;;;;;;;2.57;71.53;99757.70;1771323;80;21002;-69
2022/03/08 03:03:54;;;;;;;9.40;5.78;;;;;;;2.67;71.51;99752.84;1770509;80;21006;-67
2022/03/08 03:06:20;;;;;;;8.78;4.95;;;;;;;2.76;71.01;99752.30;1770836;81;21469;-68
2022/03/08 03:08:48;;;;;;;8.80;5.00;;;;;;;2.88;71.25;99740.48;1770797;80;21053;-68
2022/03/08 03:11:16;;;;;;;11.50;5.35;;;;;;;3.05;70.89;99741.12;1770723;79;21134;-68
2022/03/08 03:13:43;;;;;;;8.75;4.45;;;;;;;3.22;70.08;99741.34;1770669;81;21033;-70
2022/03/08 03:16:09;;;;;;;8.93;4.43;;;;;;;3.29;69.44;99741.25;1770955;81;21117;-69
2022/03/08 03:18:36;;;;;;;9.30;4.67;;;;;;;3.36;69.43;99735.52;1770605;81;21021;-70
2022/03/08 03:21:03;;;;;;;8.03;4.90;;;;;;;3.46;68.94;99740.16;1770719;80;21096;-68
2022/03/08 03:23:30;;;;;;;8.90;5.12;;;;;;;3.30;68.14;99742.11;1770705;80;21265;-68
2022/03/08 03:25:56;;;;;;;8.90;5.25;;;;;;;3.04;68.70;99739.41;1770835;80;20994;-68
2022/03/08 03:28:23;;;;;;;9.23;4.83;;;;;;;2.95;68.66;99742.13;1770600;80;21037;-69
2022/03/08 03:30:50;;;;;;;9.00;5.43;;;;;;;2.86;69.12;99739.19;1770839;81;21006;-68
2022/03/08 03:33:19;;;;;;;8.48;4.60;;;;;;;2.68;69.55;99745.45;1770548;80;21521;-69
2022/03/08 03:35:45;;;;;;;9.85;4.65;;;;;;;2.56;71.00;99745.59;1770737;81;21563;-67
2022/03/08 03:38:12;;;;;;;8.68;3.85;;;;;;;2.62;72.38;99743.36;1770633;81;21112;-69
2022/03/08 03:40:40;;;;;;;7.83;4.28;;;;;;;2.58;71.48;99749.05;1770872;81;21528;-68
2022/03/08 03:43:07;;;;;;;6.75;4.25;;;;;;;2.45;72.02;99753.94;1770682;81;21065;-69
2022/03/08 03:45:35;;;;;;;6.78;3.90;;;;;;;2.30;72.03;99754.52;1771025;81;21671;-69
2022/03/08 03:48:02;;;;;;;7.58;4.40;;;;;;;2.08;72.70;99750.39;1771130;81;21217;-69
2022/03/08 03:50:29;;;;;;;6.55;3.67;;;;;;;2.21;73.75;99753.72;1770735;80;21073;-68
2022/03/08 03:52:56;;;;;;;6.35;3.90;;;;;;;2.26;73.54;99755.42;1771060;81;21065;-70
2022/03/08 03:55:22;;;;;;;7.95;4.33;;;;;;;2.47;73.77;99752.19;1770731;81;20982;-68
2022/03/08 03:57:50;;;;;;;10.15;4.50;;;;;;;2.58;73.59;99762.05;1771066;81;21002;-71
2022/03/08 04:00:17;;;;;;;10.98;4.20;;;;;;;2.67;73.08;99758.05;1770829;80;21285;-69
2022/03/08 04:02:44;;;;;;;8.15;3.95;;;;;;;2.69;73.22;99754.99;1770818;81;21116;-68
2022/03/08 04:05:11;;;;;;;9.70;4.10;;;;;;;2.70;72.29;99750.65;1770855;80;21049;-68
2022/03/08 04:07:39;;;;;;;8.38;3.90;;;;;;;2.71;72.88;99750.64;1770682;80;21093;-68
2022/03/08 04:10:09;;;;;;;6.08;3.67;;;;;;;2.90;73.00;99746.08;1770796;79;21005;-68
2022/03/08 04:12:35;;;;;;;7.50;4.03;;;;;;;3.09;72.20;99750.61;1770813;81;21623;-69
2022/03/08 04:15:04;;;;;;;6.22;3.45;;;;;;;3.25;71.23;99749.13;1745455;81;21005;-68
2022/03/08 04:17:32;;;;;;;7.92;4.22;;;;;;;3.24;69.68;99754.74;1740296;82;21045;-68
2022/03/08 04:19:59;;;;;;;5.90;3.40;;;;;;;2.93;69.99;99752.98;1740243;82;21568;-68
2022/03/08 04:22:25;;;;;;;6.78;3.85;;;;;;;2.69;69.92;99760.20;1740276;82;21524;-68
2022/03/08 04:24:53;;;;;;;5.83;3.60;;;;;;;2.31;71.00;99763.17;1740343;82;21190;-69
2022/03/08 04:27:20;;;;;;;6.75;3.47;;;;;;;1.87;72.32;99768.30;1740296;82;21510;-67
2022/03/08 04:29:47;;;;;;;10.85;3.85;;;;;;;1.40;73.43;99756.07;1740534;82;21127;-67
2022/03/08 04:32:15;;;;;;;6.72;3.50;;;;;;;1.11;74.35;99761.40;1742243;82;21037;-70
2022/03/08 04:34:42;;;;;;;6.72;3.85;;;;;;;0.85;75.21;99761.48;1745761;82;21100;-69
2022/03/08 04:37:09;;;;;;;6.53;3.67;;;;;;;0.59;76.12;99767.61;1745715;82;21224;-67
2022/03/08 04:39:36;;;;;;;6.58;4.10;;;;;;;0.28;77.44;99768.55;1745531;82;21081;-68
2022/03/08 04:42:04;;;;;;;7.53;3.83;;;;;;;0.28;77.44;99768.55;1745877;82;21018;-69
2022/03/08 04:44:32;;;;;;;8.48;4.00;;;;;;;0.14;78.54;99776.33;1745724;82;21010;-68
2022/03/08 04:46:58;;;;;;;8.50;3.77;;;;;;;0.04;79.49;99776.73;1745701;82;21060;-69
2022/03/08 04:49:25;;;;;;;8.20;4.67;;;;;;;-0.06;80.71;99773.73;1745724;82;21836;-68
2022/03/08 04:51:51;;;;;;;8.18;4.20;;;;;;;-0.10;81.74;99770.70;1745610;82;21557;-68
2022/03/08 04:54:18;;;;;;;9.55;4.72;;;;;;;-0.17;82.25;99775.45;1745595;82;21580;-67
2022/03/08 04:56:45;;;;;;;7.08;3.95;;;;;;;-0.21;82.77;99777.16;1745690;82;22123;-68
2022/03/08 04:59:12;;;;;;;6.83;4.05;;;;;;;-0.23;83.62;99777.17;1745873;82;21588;-68
2022/03/08 05:01:38;;;;;;;7.80;4.37;;;;;;;-0.25;84.14;99772.42;1766621;80;21232;-69
2022/03/08 05:04:05;;;;;;;10.48;4.53;;;;;;;-0.23;84.48;99772.00;1776703;80;21013;-69
2022/03/08 05:06:33;;;;;;;7.92;4.33;;;;;;;-0.23;84.98;99782.35;1776497;80;21001;-69
2022/03/08 05:09:00;;;;;;;8.60;4.42;;;;;;;-0.28;85.24;99776.28;1776381;80;21009;-68
2022/03/08 05:11:27;;;;;;;7.35;4.50;;;;;;;-0.29;85.22;99782.33;1776441;80;21040;-68
2022/03/08 05:13:54;;;;;;;7.08;3.95;;;;;;;-0.32;85.46;99782.34;1776398;80;21290;-68
2022/03/08 05:16:21;;;;;;;6.67;4.25;;;;;;;-0.32;85.68;99781.45;1776535;80;20986;-68
2022/03/08 05:18:47;;;;;;;8.13;4.65;;;;;;;-0.37;86.09;99776.27;1776396;80;21715;-69
2022/03/08 05:21:14;;;;;;;8.43;4.37;;;;;;;-0.38;86.58;99783.61;1776388;80;21533;-67
2022/03/08 05:23:42;;;;;;;7.10;3.83;;;;;;;-0.39;86.75;99783.20;1776285;80;21532;-68
2022/03/08 05:26:08;;;;;;;7.60;3.92;;;;;;;-0.40;86.81;99781.45;1776787;80;21521;-69
2022/03/08 05:28:35;;;;;;;9.33;5.08;;;;;;;-0.37;87.14;99779.30;1776418;80;21024;-68
2022/03/08 05:31:02;;;;;;;7.92;4.92;;;;;;;-0.40;87.69;99780.59;1776448;80;21045;-68
2022/03/08 05:33:28;;;;;;;7.42;4.28;;;;;;;-0.37;88.12;99780.15;1775983;80;20998;-68
2022/03/08 05:35:55;;;;;;;10.53;4.65;;;;;;;-0.31;88.29;99781.47;1776652;80;21005;-67
2022/03/08 05:38:21;;;;;;;7.47;4.50;;;;;;;-0.27;88.39;99776.73;1776277;80;21220;-68
2022/03/08 05:40:48;;;;;;;7.70;4.42;;;;;;;-0.22;88.49;99780.19;1776371;80;21048;-68
2022/03/08 05:43:16;;;;;;;6.60;4.28;;;;;;;-0.17;88.60;99781.92;1776352;80;21037;-69
2022/03/08 05:45:42;;;;;;;6.78;4.62;;;;;;;-0.15;88.57;99782.78;1776413;80;21072;-69
2022/03/08 05:48:10;;;;;;;7.33;4.62;;;;;;;-0.14;88.78;99790.97;1776580;80;20994;-69
2022/03/08 05:50:37;;;;;;;7.42;3.70;;;;;;;-0.15;89.01;99785.38;1776158;80;21219;-68
2022/03/08 05:53:03;;;;;;;7.78;4.40;;;;;;;-0.20;89.29;99784.52;1776435;80;21056;-69
2022/03/08 05:55:30;;;;;;;7.87;4.30;;;;;;;-0.23;89.66;99790.12;1776463;80;21048;-68
2022/03/08 05:57:56;;;;;;;6.80;4.53;;;;;;;-0.20;90.02;99798.75;1776451;80;21104;-67
2022/03/08 06:00:23;;;;;;;11.22;5.30;;;;;;;-0.23;90.19;99792.70;1776519;80;21219;-68
2022/03/08 06:02:49;;;;;;;9.58;4.22;;;;;;;-0.26;90.36;99792.67;1776447;80;22222;-69
2022/03/08 06:05:17;;;;;;;8.88;4.83;;;;;;;-0.23;90.62;99791.41;1776035;80;21017;-67
2022/03/08 06:07:44;;;;;;;10.43;4.92;;;;;;;-0.16;91.03;99797.86;1776357;80;21466;-68
2022/03/08 06:10:11;;;;;;;11.45;5.85;;;;;;;-0.10;91.43;99800.47;1776139;79;21033;-68
2022/03/08 06:12:41;;;;;;;6.70;4.37;;;;;;;-0.03;91.34;99800.91;1776422;80;21044;-67
2022/03/08 06:15:09;;;;;;;8.40;5.10;;;;;;;-0.02;91.35;99798.77;1750036;80;21348;-68
2022/03/08 06:17:36;;;;;;;7.92;5.15;;;;;;;0.18;90.71;99799.64;1745525;82;21052;-69
2022/03/08 06:20:04;;;;;;;8.03;4.25;;;;;;;0.23;90.51;99796.16;1767187;80;21033;-69
2022/03/08 06:22:30;;;;;;;9.90;5.40;;;;;;;0.07;91.41;99796.18;1776507;80;20997;-69
2022/03/08 06:24:57;;;;;;;10.58;5.62;;;;;;;0.19;91.33;99798.77;1776559;80;21112;-68
2022/03/08 06:27:24;;;;;;;9.23;5.42;;;;;;;0.19;91.83;99803.94;1776598;80;21343;-69
2022/03/08 06:29:51;;;;;;;11.55;5.80;;;;;;;0.25;92.20;99802.20;1776877;80;21491;-68
2022/03/08 06:32:19;;;;;;;11.15;5.33;;;;;;;0.31;92.27;99803.50;1776312;80;21612;-69
2022/03/08 06:34:46;;;;;;;10.80;5.47;;;;;;;0.37;92.51;99813.44;1776400;80;21037;-69
2022/03/08 06:37:12;;;;;;;13.53;6.10;;;;;;;0.48;92.57;99805.63;1776406;80;21509;-69
2022/03/08 06:39:39;;;;;;;11.18;5.67;;;;;;;0.54;92.24;99808.22;1776413;80;23143;-69
2022/03/08 06:42:08;;;;;;;9.08;5.70;;;;;;;0.62;91.99;99800.02;1776259;80;21041;-69
2022/03/08 06:47:05;;;;;;;12.07;5.70;;;;;;;0.85;92.11;99801.67;1796386;79;22595;-69
2022/03/08 06:49:31;;;;;;;11.83;5.80;;;;;;;1.03;91.54;99796.42;1756154;80;21005;-69
2022/03/08 06:51:58;;;;;;;10.88;5.72;;;;;;;1.27;91.27;99795.91;1756305;81;21218;-70
2022/03/08 06:54:24;;;;;;;9.25;5.22;;;;;;;1.68;90.10;99805.22;1756430;81;21069;-69
2022/03/08 06:56:50;;;;;;;9.33;5.20;;;;;;;2.24;89.39;99792.69;1756596;81;21053;-69
2022/03/08 06:59:17;;;;;;;11.88;5.60;;;;;;;2.66;87.44;99799.20;1756855;81;21616;-70
2022/03/08 07:01:43;;;;;;;10.05;5.15;;;;;;;2.84;84.16;99794.70;1756311;81;21605;-71
2022/03/08 07:04:10;;;;;;;8.28;4.90;;;;;;;2.91;81.48;99787.25;1756248;81;21581;-70
2022/03/08 07:06:38;;;;;;;8.88;5.15;;;;;;;2.89;80.97;99794.20;1756097;81;21024;-68
2022/03/08 07:09:05;;;;;;;9.30;5.00;;;;;;;2.88;80.68;99793.80;1757631;81;21022;-70
2022/03/08 07:11:31;;;;;;;8.88;5.10;;;;;;;2.88;78.43;99788.59;1748235;82;21065;-68
2022/03/08 07:13:58;;;;;;;13.10;5.40;;;;;;;2.84;78.98;99792.11;1747876;82;21076;-70
2022/03/08 07:16:24;;;;;;;10.23;4.78;;;;;;;2.81;79.13;99792.15;1748148;81;21201;-68
2022/03/08 07:18:51;;;;;;;8.93;5.25;;;;;;;2.71;79.76;99800.05;1747820;82;21021;-69
2022/03/08 07:21:17;;;;;;;7.22;4.70;;;;;;;2.72;79.71;99801.75;1748117;82;21045;-70
2022/03/08 07:23:44;;;;;;;9.75;4.80;;;;;;;2.64;79.31;99800.95;1747813;82;21576;-68
2022/03/08 07:26:10;;;;;;;9.90;5.10;;;;;;;2.67;79.86;99801.39;1748192;82;21525;-69
2022/03/08 07:28:36;;;;;;;7.42;4.62;;;;;;;2.81;80.04;99798.65;1748157;82;21231;-69
2022/03/08 07:31:03;;;;;;;7.25;4.72;;;;;;;2.94;78.90;99785.91;1747875;82;21073;-68
2022/03/08 07:33:30;;;;;;;10.70;5.03;;;;;;;3.08;78.82;99789.23;1748033;82;21017;-69
2022/03/08 07:35:57;;;;;;;8.43;5.00;;;;;;;3.12;77.60;99788.29;1748234;82;21018;-70
2022/03/08 07:38:24;;;;;;;9.08;4.70;;;;;;;3.09;77.10;99789.64;1747848;82;21605;-70
2022/03/08 07:40:50;;;;;;;9.30;4.62;;;;;;;3.12;76.90;99785.69;1748145;82;21195;-69
2022/03/08 07:43:17;;;;;;;8.95;4.95;;;;;;;3.12;77.50;99785.69;1748206;82;21025;-70
2022/03/08 07:45:43;;;;;;;9.15;5.00;;;;;;;3.10;76.54;99783.54;1743608;81;21037;-70
2022/03/08 07:48:10;;;;;;;6.37;4.05;;;;;;;3.05;76.69;99784.48;1734853;82;20995;-69
2022/03/08 07:50:37;;;;;;;5.35;4.00;;;;;;;2.95;76.36;99785.05;1734696;82;21032;-69
2022/03/08 07:53:05;;;;;;;7.78;4.58;;;;;;;2.85;77.20;99784.71;1735092;82;21216;-70
2022/03/08 07:55:32;;;;;;;7.87;4.08;;;;;;;2.74;76.10;99779.64;1734490;82;21051;-70
2022/03/08 07:58:00;;;;;;;7.80;3.80;;;;;;;2.61;76.46;99781.50;1734341;82;21645;-69
2022/03/08 08:00:28;;;;;;;8.40;3.95;;;;;;;2.76;76.26;99779.61;1734144;82;21049;-69
2022/03/08 08:02:55;;;;;;;5.83;3.83;;;;;;;3.12;77.12;99772.67;1734221;82;21015;-69
2022/03/08 08:05:22;;;;;;;7.22;4.05;;;;;;;3.56;76.83;99772.97;1734198;82;21197;-70
2022/03/08 08:07:49;;;;;;;5.80;3.55;;;;;;;3.97;75.26;99770.20;1734128;82;21069;-68
2022/03/08 08:10:16;;;;;;;6.95;3.50;;;;;;;4.25;75.30;99765.84;1734020;82;21106;-68
2022/03/08 08:12:45;;;;;;;7.78;4.35;;;;;;;4.39;73.42;99764.73;1734234;82;21050;-69
2022/03/08 08:15:13;;;;;;;7.62;4.08;;;;;;;4.34;72.48;99766.53;1707723;82;21045;-69
2022/03/08 08:17:40;;;;;;;5.22;3.55;;;;;;;4.21;71.99;99768.95;1704883;84;21322;-70
2022/03/08 08:20:11;;;;;;;5.87;3.77;;;;;;;4.03;72.75;99779.68;1704851;84;21070;-69
2022/03/08 08:22:38;;;;;;;8.33;4.20;;;;;;;3.85;72.71;99781.67;1705290;84;21066;-69
2022/03/08 08:25:07;;;;;;;7.65;3.62;;;;;;;3.57;73.20;99774.71;1704820;84;21099;-69
2022/03/08 08:27:33;;;;;;;6.83;3.35;;;;;;;3.28;74.26;99787.66;1705224;84;21033;-69
2022/03/08 08:30:00;;;;;;;6.30;3.37;;;;;;;3.05;75.32;99784.05;1704947;84;21252;-68
2022/03/08 08:32:28;;;;;;;5.97;3.30;;;;;;;2.89;76.25;99785.11;1704796;83;21593;-70
2022/03/08 08:34:55;;;;;;;4.97;3.40;;;;;;;2.86;78.04;99782.55;1704817;84;21023;-70
2022/03/08 08:37:22;;;;;;;4.17;2.90;;;;;;;2.97;78.29;99788.49;1704685;84;21654;-70
2022/03/08 08:39:49;;;;;;;6.95;3.25;;;;;;;3.01;77.54;99781.05;1704808;84;21549;-69
2022/03/08 08:42:16;;;;;;;6.47;3.25;;;;;;;3.09;76.81;99778.38;1704901;84;21972;-69
2022/03/08 08:44:44;;;;;;;6.78;3.60;;;;;;;3.26;77.02;99777.70;1704679;83;21046;-70
2022/03/08 08:47:13;;;;;;;5.05;3.00;;;;;;;3.51;78.00;99774.34;1715433;83;21538;-69
2022/03/08 08:49:40;;;;;;;5.45;2.87;;;;;;;3.84;77.68;99769.52;1718335;83;21585;-70
2022/03/08 08:52:07;;;;;;;5.08;3.15;;;;;;;3.99;75.84;99773.64;1718644;83;21026;-70
2022/03/08 08:54:34;;;;;;;5.10;3.17;;;;;;;4.01;74.05;99778.84;1718236;83;21203;-67
2022/03/08 08:57:01;;;;;;;4.83;2.90;;;;;;;3.76;72.97;99781.36;1718567;83;21045;-69
2022/03/08 08:59:28;;;;;;;4.28;2.58;;;;;;;3.43;72.82;99785.73;1718274;83;21022;-68
2022/03/08 09:01:55;;;;;;;5.70;3.02;;;;;;;3.08;73.80;99798.75;1718459;83;21030;-68
2022/03/08 09:04:22;;;;;;;4.60;2.60;;;;;;;2.80;74.37;99798.20;1718646;83;21061;-68
2022/03/08 09:06:50;;;;;;;6.37;3.15;;;;;;;2.51;73.26;99809.77;1718291;83;21060;-69
2022/03/08 09:09:17;;;;;;;14.98;4.80;;;;;;;2.31;73.85;99814.70;1718060;83;21140;-71
2022/03/08 09:11:45;;;;;;;11.50;3.87;;;;;;;2.15;75.07;99806.61;1718354;83;21085;-70
2022/03/08 09:14:14;;;;;;;7.72;3.65;;;;;;;2.02;76.20;99802.37;1732836;82;21042;-69
2022/03/08 09:16:42;;;;;;;6.37;3.50;;;;;;;1.85;76.67;99805.95;1748260;82;21392;-70
2022/03/08 09:19:10;;;;;;;6.80;3.35;;;;;;;1.77;77.11;99809.47;1748092;82;21242;-70
2022/03/08 09:21:38;;;;;;;6.50;3.10;;;;;;;1.70;77.53;99809.94;1720409;82;21025;-69
2022/03/08 09:24:07;;;;;;;3.08;2.52;;;;;;;1.65;77.95;99810.41;1748375;82;21085;-71
2022/03/08 09:26:34;;;;;;;4.55;2.62;;;;;;;1.52;77.24;99812.23;1748219;82;21025;-69
2022/03/08 09:29:01;;;;;;;3.40;2.15;;;;;;;1.30;79.19;99820.98;1748397;82;21065;-68
2022/03/08 09:31:28;;;;;;;3.05;2.02;;;;;;;1.17;79.87;99820.16;1730476;82;21238;-68
2022/03/08 09:33:55;;;;;;;7.35;2.52;;;;;;;1.11;81.69;99826.23;1718420;83;21069;-69
2022/03/08 09:36:22;;;;;;;17.07;4.25;;;;;;;0.95;82.90;99825.42;1718222;83;21045;-70
2022/03/08 09:38:50;;;;;;;10.63;2.90;;;;;;;0.92;84.83;99828.03;1718385;83;21018;-69
2022/03/08 09:41:17;;;;;;;14.53;3.92;;;;;;;0.92;86.67;99821.55;1718605;83;21033;-69
2022/03/08 09:43:44;;;;;;;4.40;1.92;;;;;;;1.95;87.64;99817.13;1718228;83;21233;-70
2022/03/08 09:46:12;;;;;;;9.58;2.90;;;;;;;1.95;87.64;99817.13;1714950;83;21066;-71
2022/03/08 09:48:39;;;;;;;3.90;2.30;;;;;;;2.90;87.29;99820.66;1705188;83;21078;-70
2022/03/08 09:51:07;;;;;;;4.62;2.15;;;;;;;3.52;84.14;99811.64;1704920;84;21578;-70
2022/03/08 09:53:35;;;;;;;5.55;2.25;;;;;;;3.87;78.82;99808.56;1705223;84;22094;-70
2022/03/08 09:56:05;;;;;;;6.53;2.77;;;;;;;4.04;75.35;99807.45;1704988;84;21135;-71
2022/03/08 09:58:33;;;;;;;3.45;2.00;;;;;;;4.10;73.74;99806.05;1704803;83;21105;-70
2022/03/08 10:01:03;;;;;;;2.85;1.90;;;;;;;4.12;71.78;99805.59;1704667;84;21073;-71
2022/03/08 10:03:39;;;;;;;3.45;2.33;;;;;;;4.16;69.88;99807.23;1705097;83;21037;-70
2022/03/08 10:06:08;;;;;;;3.05;2.22;;;;;;;4.17;64.95;99805.07;1704704;84;21054;-71
2022/03/08 10:08:36;;;;;;;5.60;1.85;;;;;;;4.03;67.03;99818.77;1704648;83;21618;-70
2022/03/08 10:11:07;;;;;;;4.20;2.20;;;;;;;3.92;68.23;99811.95;1704581;83;21050;-69
2022/03/08 10:13:42;;;;;;;2.80;2.30;;;;;;;3.76;69.80;99810.46;1704479;83;21104;-69
2022/03/08 10:16:22;;;;;;;3.65;2.55;;;;;;;3.57;71.86;99810.72;1684336;84;21581;-69
2022/03/08 10:18:50;;;;;;;5.83;2.42;;;;;;;3.46;72.84;99808.70;1704352;84;21043;-69
2022/03/08 10:21:36;;;;;;;3.17;2.30;;;;;;;3.45;74.49;99809.59;1704563;84;21923;-69
2022/03/08 10:24:15;;;;;;;3.50;2.35;;;;;;;3.90;75.56;99803.30;1705881;83;21653;-68
2022/03/08 10:26:51;;;;;;;2.67;2.20;;;;;;;4.52;77.30;99799.70;1704714;84;21089;-70
2022/03/08 10:29:37;;;;;;;4.12;2.20;;;;;;;5.41;74.49;99796.68;1704890;83;21600;-69
2022/03/08 10:32:17;;;;;;;2.65;1.80;;;;;;;6.18;69.14;99793.64;1704760;84;21054;-69
2022/03/08 10:34:47;;;;;;;2.30;1.60;;;;;;;6.33;61.12;99791.97;1704935;84;22760;-69
2022/03/08 10:37:19;;;;;;;2.85;2.00;;;;;;;6.01;58.16;99795.37;1704651;84;21108;-69
2022/03/08 10:39:56;;;;;;;2.72;1.75;;;;;;;5.80;56.83;99794.09;1704793;84;21062;-69
2022/03/08 10:42:33;;;;;;;3.25;1.52;;;;;;;5.51;56.33;99795.58;1704648;84;22121;-70
2022/03/08 10:45:10;;;;;;;2.10;1.50;;;;;;;5.19;55.70;99797.56;1704749;84;21081;-71
2022/03/08 10:47:43;;;;;;;2.70;1.90;;;;;;;4.89;56.38;99805.55;1713259;83;21900;-69
2022/03/08 10:50:14;;;;;;;3.15;1.90;;;;;;;4.61;57.02;99803.45;1717730;83;21050;-69
2022/03/08 10:52:45;;;;;;;4.00;1.90;;;;;;;4.27;58.71;99813.59;1718361;83;26691;-67
2022/03/08 10:55:24;;;;;;;4.33;2.10;;;;;;;4.06;60.41;99808.28;1718685;83;21166;-69
2022/03/08 10:58:04;;;;;;;2.50;1.80;;;;;;;3.90;61.20;99807.66;1718159;83;21048;-70
2022/03/08 11:00:46;;;;;;;3.10;1.70;;;;;;;3.79;61.18;99815.61;1718424;83;21160;-68
2022/03/08 11:03:16;;;;;;;3.47;1.77;;;;;;;3.60;61.56;99809.81;1718156;83;21081;-70
2022/03/08 11:05:49;;;;;;;2.25;1.70;;;;;;;3.39;62.26;99810.96;1718511;83;21082;-69
2022/03/08 11:08:17;;;;;;;2.83;2.02;;;;;;;3.33;62.82;99814.93;1717993;83;21116;-68
2022/03/08 11:10:46;;;;;;;3.08;2.15;;;;;;;3.34;63.30;99814.07;1718248;83;21017;-70
2022/03/08 11:13:17;;;;;;;2.20;1.55;;;;;;;3.28;63.00;99812.84;1718150;83;21248;-69
2022/03/08 11:15:49;;;;;;;2.35;1.70;;;;;;;3.23;62.01;99819.84;1718551;83;21104;-68
2022/03/08 11:18:17;;;;;;;2.27;1.70;;;;;;;3.20;61.59;99819.86;1718329;83;21061;-69
2022/03/08 11:20:49;;;;;;;2.85;2.00;;;;;;;3.23;62.03;99819.84;1718526;83;21017;-68
2022/03/08 11:23:17;;;;;;;2.87;2.25;;;;;;;3.24;62.09;99819.80;1718393;83;21587;-70
2022/03/08 11:25:46;;;;;;;2.92;1.70;;;;;;;3.22;61.92;99824.20;1718455;83;22335;-68
2022/03/08 11:28:15;;;;;;;2.75;2.00;;;;;;;3.20;62.44;99819.86;1718261;83;21096;-70
2022/03/08 11:30:49;;;;;;;3.55;2.12;;;;;;;3.22;61.93;99823.31;1718361;83;21117;-71
2022/03/08 11:34:00;;;;;;;6.78;3.00;;;;;;;3.28;61.86;99820.64;1718249;83;22193;-69
2022/03/08 11:36:33;;;;;;;4.60;2.30;;;;;;;3.28;59.91;99814.14;1691444;83;21101;-69
2022/03/08 11:39:22;;;;;;;2.77;2.10;;;;;;;3.24;61.07;99817.65;1718180;83;21210;-69
2022/03/08 11:41:56;;;;;;;3.45;1.90;;;;;;;3.23;59.58;99815.94;1718210;83;22137;-69
2022/03/08 11:44:31;;;;;;;2.12;1.35;;;;;;;3.14;58.36;99820.81;1718193;83;21081;-70